Spencer, Wisconsin
Current Conditions -  °F | °C
As of 7:54 AM on Thursday 30 Oct 2014 (Local Time) from KMFI Reporting Station
Overcast Overcast  
Wind Chill: 33°   Ceiling: 10000
Heat Index: 33°   Visibility: 10mi
Dew Point: 31°   Wind: 3mph
Humidity: 92%   Direction: 230°SW
Pressure: 30.06"   Gusts: NA
Location:  44.76°N, 90.3°W
Report Text: KMFI 301254Z AUTO 23003KT 10SM OVC100 01/M01 A3006 RMK AO2 SLP193 T00061006
Loading
Personal Weather Stations






























Interactive Weather Map
Tropical Storm Tracking
New forecast layout! Learn more

10-Day Weather Forecast

Advertisements
Track Severe Weather on mobile